Time;durP1;ratioP1;P1;durP2;ratioP2;P2;SDS_P1;SDS_P2;PMS_P1;PMS_P2;Temp;Humidity;BMP_temperature;BMP_pressure;BME280_temperature;BME280_humidity;BME280_pressure;Samples;Min_cycle;Max_cycle;Signal;HPM_P1;HPM_P2
2023/08/09 00:01:50;;;;;;;2.72;0.57;;;22.20;1.00;;;;;;4935579;29;20074;-46
2023/08/09 00:04:16;;;;;;;6.30;0.63;;;22.20;1.00;;;;;;4935840;29;20099;-46
2023/08/09 00:06:43;;;;;;;1.00;0.32;;;22.20;1.00;;;;;;4935476;29;20043;-46
2023/08/09 00:09:10;;;;;;;0.95;0.50;;;22.20;1.00;;;;;;4935557;29;20119;-48
2023/08/09 00:11:37;;;;;;;1.45;0.60;;;22.20;1.00;;;;;;4935361;29;20040;-45
2023/08/09 00:14:04;;;;;;;0.80;0.25;;;22.20;1.00;;;;;;4935697;29;20082;-49
2023/08/09 00:16:31;;;;;;;2.22;0.52;;;22.20;1.00;;;;;;4935356;29;20117;-45
2023/08/09 00:18:58;;;;;;;1.23;0.50;;;22.20;1.00;;;;;;4935565;29;20048;-44
2023/08/09 00:21:25;;;;;;;2.42;0.60;;;22.20;1.00;;;;;;4935298;29;20050;-44
2023/08/09 00:23:51;;;;;;;1.85;0.30;;;22.20;1.00;;;;;;4935332;29;20039;-44
2023/08/09 00:26:18;;;;;;;1.00;0.73;;;22.20;1.00;;;;;;4935037;29;20126;-44
2023/08/09 00:28:45;;;;;;;0.65;0.30;;;22.20;1.00;;;;;;4935210;29;20110;-45
2023/08/09 00:31:12;;;;;;;0.85;0.30;;;22.20;1.00;;;;;;4934921;29;20113;-45
2023/08/09 00:33:39;;;;;;;1.00;0.50;;;22.20;1.00;;;;;;4918156;29;20052;-44
2023/08/09 00:36:06;;;;;;;2.55;0.50;;;22.20;1.00;;;;;;4935192;29;20460;-44
2023/08/09 00:38:33;;;;;;;0.95;0.47;;;22.20;1.00;;;;;;4919820;29;20135;-47
2023/08/09 00:41:00;;;;;;;2.50;0.40;;;22.10;1.00;;;;;;4917704;29;20047;-44
2023/08/09 00:43:27;;;;;;;3.33;0.57;;;22.20;1.00;;;;;;4913778;29;20116;-44
2023/08/09 00:45:55;;;;;;;1.85;0.55;;;22.20;1.00;;;;;;4908272;29;20040;-43
2023/08/09 00:48:23;;;;;;;1.70;0.40;;;22.10;1.00;;;;;;4917602;29;20040;-44
2023/08/09 00:50:50;;;;;;;1.00;0.38;;;22.10;1.00;;;;;;4934663;29;20043;-44
2023/08/09 00:53:17;;;;;;;0.90;0.50;;;22.10;1.00;;;;;;4934819;29;20055;-44
2023/08/09 00:55:45;;;;;;;0.65;0.43;;;22.10;1.00;;;;;;4934827;29;20047;-44
2023/08/09 00:58:11;;;;;;;0.90;0.70;;;22.10;1.00;;;;;;4934581;29;20492;-43
2023/08/09 01:00:39;;;;;;;0.40;0.22;;;22.10;1.00;;;;;;4917592;29;20043;-44
2023/08/09 01:03:06;;;;;;;0.60;0.40;;;22.10;1.00;;;;;;4934715;29;20122;-43
2023/08/09 01:05:43;;;;;;;1.33;0.20;;;22.10;1.00;;;;;;4934347;29;20086;-45
2023/08/09 01:08:43;;;;;;;1.90;0.50;;;22.10;1.00;;;;;;4916808;29;20052;-43
2023/08/09 01:11:19;;;;;;;2.25;0.45;;;22.10;1.00;;;;;;4913281;29;20067;-43
2023/08/09 01:13:50;;;;;;;2.13;0.57;;;22.10;1.00;;;;;;4916834;29;20059;-43
2023/08/09 01:16:18;;;;;;;1.80;0.70;;;22.10;1.00;;;;;;4930083;29;20432;-44
2023/08/09 01:18:48;;;;;;;1.55;0.60;;;22.00;1.00;;;;;;4916711;29;20032;-44
2023/08/09 01:21:19;;;;;;;0.75;0.22;;;22.10;1.00;;;;;;4933450;29;20449;-44
2023/08/09 01:23:47;;;;;;;1.55;0.50;;;22.10;1.00;;;;;;4912174;29;20556;-43
2023/08/09 01:26:13;;;;;;;1.52;0.60;;;22.10;1.00;;;;;;4913708;29;20055;-44
2023/08/09 01:28:40;;;;;;;0.98;0.40;;;22.00;1.00;;;;;;4900994;29;20040;-43
2023/08/09 01:31:07;;;;;;;2.92;0.47;;;22.00;1.00;;;;;;4933558;29;20050;-45
2023/08/09 01:33:35;;;;;;;2.20;0.52;;;22.00;1.00;;;;;;4916380;29;20039;-43
2023/08/09 01:36:21;;;;;;;1.17;0.47;;;22.00;1.00;;;;;;4933461;29;20063;-44
2023/08/09 01:38:55;;;;;;;1.67;0.60;;;22.00;1.00;;;;;;4916423;29;20051;-44
2023/08/09 01:41:22;;;;;;;2.25;1.63;;;22.00;1.00;;;;;;4916186;29;20405;-44
2023/08/09 01:43:50;;;;;;;0.98;0.40;;;22.00;1.00;;;;;;4917945;29;20032;-43
2023/08/09 01:46:18;;;;;;;1.00;0.38;;;22.00;1.00;;;;;;4919585;29;20082;-45
2023/08/09 01:48:45;;;;;;;0.60;0.25;;;22.00;1.00;;;;;;4919955;29;20039;-44
2023/08/09 01:51:12;;;;;;;1.70;0.40;;;22.00;1.00;;;;;;4936858;29;20047;-44
2023/08/09 01:53:39;;;;;;;1.52;0.60;;;22.00;1.00;;;;;;4919787;29;20139;-43
2023/08/09 01:56:06;;;;;;;2.40;0.95;;;22.00;1.00;;;;;;4919811;29;20488;-43
2023/08/09 01:58:33;;;;;;;0.77;0.20;;;22.00;1.00;;;;;;4919562;29;20051;-44
2023/08/09 02:01:00;;;;;;;1.05;0.35;;;22.00;1.00;;;;;;4919282;29;20423;-45
2023/08/09 02:03:27;;;;;;;1.38;0.40;;;22.00;1.00;;;;;;4919621;29;20570;-44
2023/08/09 02:05:54;;;;;;;2.22;0.45;;;22.00;1.00;;;;;;4883426;29;1081772;-44
2023/08/09 02:08:21;;;;;;;2.88;0.25;;;22.00;1.00;;;;;;4937702;29;20058;-42
2023/08/09 02:10:48;;;;;;;0.63;0.22;;;22.00;1.00;;;;;;4920421;29;20131;-45
2023/08/09 02:13:14;;;;;;;1.65;0.45;;;22.00;1.00;;;;;;4937786;29;20407;-44
2023/08/09 02:15:41;;;;;;;2.53;0.50;;;21.90;1.00;;;;;;4905316;29;20047;-44
2023/08/09 02:18:14;;;;;;;1.98;0.30;;;21.90;1.00;;;;;;4920625;29;20043;-44
2023/08/09 02:20:41;;;;;;;1.05;0.77;;;21.90;1.00;;;;;;4905031;29;20048;-53
2023/08/09 02:23:09;;;;;;;1.65;0.45;;;21.90;1.00;;;;;;4920551;29;20047;-43
2023/08/09 02:25:35;;;;;;;0.65;0.32;;;21.90;1.00;;;;;;4920402;29;20052;-44
2023/08/09 02:28:02;;;;;;;1.58;0.60;;;21.90;1.00;;;;;;4920492;29;20043;-44
2023/08/09 02:30:29;;;;;;;0.88;0.20;;;21.90;1.00;;;;;;4920084;29;20492;-44
2023/08/09 02:32:56;;;;;;;1.55;0.32;;;21.90;1.00;;;;;;4920214;29;20054;-44
2023/08/09 02:35:23;;;;;;;1.20;0.60;;;21.90;1.00;;;;;;4920156;29;20109;-44
2023/08/09 02:37:50;;;;;;;3.83;0.40;;;21.90;1.00;;;;;;4920223;29;20043;-44
2023/08/09 02:40:17;;;;;;;0.73;0.30;;;21.90;1.00;;;;;;4936838;29;20036;-48
2023/08/09 02:42:44;;;;;;;0.60;0.30;;;21.90;1.00;;;;;;4920069;29;20070;-44
2023/08/09 02:45:11;;;;;;;0.65;0.30;;;21.90;1.00;;;;;;4920071;29;20099;-44
2023/08/09 02:47:38;;;;;;;1.27;0.50;;;21.90;1.00;;;;;;4919954;29;20051;-44
2023/08/09 02:50:06;;;;;;;0.93;0.50;;;21.90;1.00;;;;;;4919780;29;20510;-44
2023/08/09 02:52:33;;;;;;;1.55;0.65;;;21.90;1.00;;;;;;4919867;29;20048;-44
2023/08/09 02:55:00;;;;;;;1.42;0.40;;;21.90;1.00;;;;;;4918639;29;20136;-44
2023/08/09 02:57:27;;;;;;;1.02;0.45;;;21.80;1.00;;;;;;4919650;29;20055;-44
2023/08/09 02:59:53;;;;;;;0.40;0.20;;;21.80;1.00;;;;;;4919720;29;20056;-46
2023/08/09 03:02:20;;;;;;;1.20;0.43;;;21.80;1.00;;;;;;4919710;29;20043;-44
2023/08/09 03:04:48;;;;;;;1.10;0.40;;;21.80;1.00;;;;;;4919850;29;20411;-44
2023/08/09 03:07:16;;;;;;;0.70;0.40;;;21.80;1.00;;;;;;4919707;29;20048;-44
2023/08/09 03:09:43;;;;;;;0.60;0.30;;;21.80;1.00;;;;;;4919238;29;20036;-44
2023/08/09 03:12:10;;;;;;;0.88;0.30;;;21.80;1.00;;;;;;4919558;29;20518;-44
2023/08/09 03:14:37;;;;;;;2.38;0.30;;;21.80;1.00;;;;;;4919664;29;20495;-44
2023/08/09 03:17:04;;;;;;;1.20;0.43;;;21.80;1.00;;;;;;4919533;29;20043;-44
2023/08/09 03:19:31;;;;;;;2.13;0.40;;;21.80;1.00;;;;;;4919037;29;20523;-46
2023/08/09 03:21:58;;;;;;;0.55;0.20;;;21.80;1.00;;;;;;4919410;29;20039;-43
2023/08/09 03:24:26;;;;;;;0.60;0.38;;;21.80;1.00;;;;;;4903516;29;20046;-44
2023/08/09 03:26:53;;;;;;;0.95;0.40;;;21.80;1.00;;;;;;4919538;29;20047;-44
2023/08/09 03:29:20;;;;;;;2.63;0.30;;;21.80;1.00;;;;;;4919128;29;20146;-45
2023/08/09 03:31:48;;;;;;;1.48;0.20;;;21.80;1.00;;;;;;4919094;29;20051;-44
2023/08/09 03:34:17;;;;;;;2.63;0.25;;;21.80;1.00;;;;;;4919110;29;20051;-44
2023/08/09 03:36:46;;;;;;;1.02;0.68;;;21.70;1.00;;;;;;4936435;29;20099;-44
2023/08/09 03:39:13;;;;;;;1.05;0.55;;;21.70;1.00;;;;;;4912373;29;20044;-44
2023/08/09 03:41:41;;;;;;;1.23;0.85;;;21.70;1.00;;;;;;4934953;29;20558;-44
2023/08/09 03:44:09;;;;;;;0.60;0.38;;;21.70;1.00;;;;;;4919066;29;20051;-44
2023/08/09 03:46:37;;;;;;;0.70;0.40;;;21.70;1.00;;;;;;4918875;29;20079;-44
2023/08/09 03:49:04;;;;;;;1.90;0.50;;;21.70;1.00;;;;;;4918823;29;20040;-44
2023/08/09 03:51:35;;;;;;;0.75;0.45;;;21.70;1.00;;;;;;4918667;29;20048;-44
2023/08/09 03:54:02;;;;;;;1.48;0.85;;;21.70;1.00;;;;;;4918788;29;20126;-44
2023/08/09 03:56:29;;;;;;;0.63;0.40;;;21.70;1.00;;;;;;5004064;23;20052;-45
2023/08/09 03:58:56;;;;;;;2.13;0.55;;;21.70;1.00;;;;;;4936200;29;20403;-43
2023/08/09 04:01:23;;;;;;;2.90;0.60;;;21.70;1.00;;;;;;4935254;29;20039;-44
2023/08/09 04:03:50;;;;;;;3.67;0.50;;;21.70;1.00;;;;;;4918911;29;20472;-44
2023/08/09 04:06:17;;;;;;;1.08;0.35;;;21.70;1.00;;;;;;4902653;29;20062;-44
2023/08/09 04:08:46;;;;;;;0.55;0.30;;;21.70;1.00;;;;;;4899891;29;20068;-48
2023/08/09 04:11:13;;;;;;;1.85;0.30;;;21.70;1.00;;;;;;4879181;29;20108;-44
2023/08/09 04:13:41;;;;;;;1.05;0.40;;;21.70;1.00;;;;;;4898424;29;20055;-44
2023/08/09 04:16:08;;;;;;;0.90;0.30;;;21.60;1.00;;;;;;4900579;29;20044;-44
2023/08/09 04:18:35;;;;;;;1.52;0.30;;;21.60;1.00;;;;;;4900293;29;20468;-44
2023/08/09 04:21:02;;;;;;;3.53;0.55;;;21.60;1.00;;;;;;4917179;29;20036;-47
2023/08/09 04:23:29;;;;;;;4.13;0.73;;;21.50;1.00;;;;;;4884918;29;20054;-44
2023/08/09 04:25:58;;;;;;;2.38;1.42;;;21.50;1.00;;;;;;4916904;29;20047;-54
2023/08/09 04:28:25;;;;;;;5.28;0.70;;;21.50;1.00;;;;;;4916169;29;20075;-43
2023/08/09 04:30:52;;;;;;;2.72;0.60;;;21.50;1.00;;;;;;4914856;29;20496;-44
2023/08/09 04:33:19;;;;;;;2.20;0.68;;;21.50;1.00;;;;;;4915999;29;20044;-44
2023/08/09 04:35:46;;;;;;;2.58;0.55;;;21.50;1.00;;;;;;4916173;29;20134;-43
2023/08/09 04:38:13;;;;;;;3.40;0.63;;;21.50;1.00;;;;;;4915856;29;20044;-43
2023/08/09 04:40:40;;;;;;;1.65;0.55;;;21.50;1.00;;;;;;4915856;29;20048;-44
2023/08/09 04:43:06;;;;;;;1.08;0.40;;;21.50;1.00;;;;;;4916094;29;20044;-44
2023/08/09 04:45:34;;;;;;;1.65;0.50;;;21.40;1.00;;;;;;4915985;29;20048;-43
2023/08/09 04:48:03;;;;;;;1.27;0.60;;;21.50;1.00;;;;;;4915723;29;20044;-43
2023/08/09 04:50:30;;;;;;;1.27;0.35;;;21.40;1.00;;;;;;4915902;29;20040;-45
2023/08/09 04:52:56;;;;;;;1.30;0.50;;;21.40;1.00;;;;;;4915966;29;20403;-44
2023/08/09 04:55:23;;;;;;;1.98;0.25;;;21.40;1.00;;;;;;4909001;29;20046;-44
2023/08/09 04:57:51;;;;;;;0.70;0.40;;;21.40;1.00;;;;;;4913757;29;20056;-52
2023/08/09 05:00:17;;;;;;;4.25;1.02;;;21.40;1.00;;;;;;4914393;29;20046;-45
2023/08/09 05:02:44;;;;;;;1.77;0.40;;;21.40;1.00;;;;;;4915835;29;20159;-44
2023/08/09 05:05:11;;;;;;;0.90;0.38;;;21.40;1.00;;;;;;4915717;29;20052;-44
2023/08/09 05:07:39;;;;;;;2.42;0.40;;;21.40;1.00;;;;;;4915597;29;20407;-43
2023/08/09 05:10:10;;;;;;;1.67;0.50;;;21.40;1.00;;;;;;4915536;29;20040;-44
2023/08/09 05:12:37;;;;;;;1.88;0.60;;;21.40;1.00;;;;;;4915586;29;20428;-43
2023/08/09 05:15:05;;;;;;;2.17;0.50;;;21.40;1.00;;;;;;4915724;29;20100;-43
2023/08/09 05:17:32;;;;;;;3.00;0.52;;;21.40;1.00;;;;;;4915171;29;20393;-43
2023/08/09 05:19:59;;;;;;;1.25;0.63;;;21.40;1.00;;;;;;4915255;29;20145;-43
2023/08/09 05:22:26;;;;;;;2.15;0.52;;;21.40;1.00;;;;;;4915469;29;20075;-43
2023/08/09 05:24:53;;;;;;;3.00;0.60;;;21.40;1.00;;;;;;4915436;29;20048;-43
2023/08/09 05:27:20;;;;;;;3.58;1.02;;;21.40;1.00;;;;;;4915659;29;20044;-43
2023/08/09 05:29:47;;;;;;;2.00;0.43;;;21.40;1.00;;;;;;4915163;29;20040;-44
2023/08/09 05:32:13;;;;;;;2.70;0.55;;;21.40;1.00;;;;;;4915455;29;20044;-44
2023/08/09 05:34:40;;;;;;;1.27;0.40;;;21.40;1.00;;;;;;4915407;29;20539;-44
2023/08/09 05:37:07;;;;;;;1.45;0.47;;;21.40;1.00;;;;;;4915562;29;20048;-44
2023/08/09 05:39:34;;;;;;;1.23;0.50;;;21.40;1.00;;;;;;4915191;29;20052;-44
2023/08/09 05:42:02;;;;;;;0.40;0.20;;;21.40;1.00;;;;;;4915306;29;20044;-44
2023/08/09 05:44:30;;;;;;;1.50;0.93;;;21.40;1.00;;;;;;4915503;29;20079;-44
2023/08/09 05:46:56;;;;;;;1.20;0.60;;;21.40;1.00;;;;;;4915209;29;20036;-44
2023/08/09 05:49:24;;;;;;;4.22;0.88;;;21.40;1.00;;;;;;4915148;29;20071;-44
2023/08/09 05:51:51;;;;;;;0.93;0.40;;;21.40;1.00;;;;;;4915313;29;20044;-44
2023/08/09 05:54:18;;;;;;;2.17;0.77;;;21.40;1.00;;;;;;4915345;29;20077;-44
2023/08/09 05:56:45;;;;;;;2.58;0.60;;;21.40;1.00;;;;;;4915089;29;20048;-44
2023/08/09 05:59:12;;;;;;;0.55;0.45;;;21.40;1.00;;;;;;4915242;29;20127;-44
2023/08/09 06:01:39;;;;;;;1.23;0.43;;;21.50;1.00;;;;;;4914888;29;20051;-43
2023/08/09 06:04:06;;;;;;;1.00;0.40;;;21.50;1.00;;;;;;4915189;29;20048;-45
2023/08/09 06:06:33;;;;;;;1.73;0.63;;;21.50;1.00;;;;;;4915150;29;20048;-44
2023/08/09 06:09:00;;;;;;;1.30;0.40;;;21.50;1.00;;;;;;4915238;29;20047;-46
2023/08/09 06:11:44;;;;;;;0.57;0.35;;;21.50;1.00;;;;;;4915120;29;20032;-46
2023/08/09 06:14:10;;;;;;;1.17;0.35;;;21.50;1.00;;;;;;4915093;29;20100;-47
2023/08/09 06:16:37;;;;;;;1.35;0.50;;;21.50;1.00;;;;;;4915021;29;20051;-45
2023/08/09 06:19:04;;;;;;;0.85;0.30;;;21.50;1.00;;;;;;4914978;29;20517;-47
2023/08/09 06:21:31;;;;;;;0.82;0.40;;;21.50;1.00;;;;;;4914949;29;20048;-44
2023/08/09 06:23:58;;;;;;;1.75;0.40;;;21.50;1.00;;;;;;4915106;29;20564;-44
2023/08/09 06:26:25;;;;;;;1.23;0.40;;;21.60;1.00;;;;;;4915390;29;20036;-44
2023/08/09 06:28:52;;;;;;;1.90;0.52;;;21.60;1.00;;;;;;4915693;29;20401;-44
2023/08/09 06:31:19;;;;;;;0.68;0.28;;;21.60;1.00;;;;;;4919173;29;20040;-44
2023/08/09 06:33:46;;;;;;;2.05;0.40;;;21.60;1.00;;;;;;4925423;29;20497;-48
2023/08/09 06:36:12;;;;;;;2.30;0.47;;;21.60;1.00;;;;;;4929206;29;20048;-48
2023/08/09 06:38:39;;;;;;;0.60;0.40;;;21.60;1.00;;;;;;4930320;29;20052;-44
2023/08/09 06:41:06;;;;;;;2.00;0.70;;;21.60;1.00;;;;;;4920746;29;20040;-49
2023/08/09 06:43:33;;;;;;;0.70;0.32;;;21.60;1.00;;;;;;4902517;29;20083;-48
2023/08/09 06:46:00;;;;;;;1.38;0.50;;;21.70;1.00;;;;;;4923744;29;20055;-46
2023/08/09 06:48:29;;;;;;;2.20;0.30;;;21.70;1.00;;;;;;4922672;29;20100;-46
2023/08/09 06:50:57;;;;;;;1.58;0.65;;;21.70;1.00;;;;;;4915483;29;20045;-46
2023/08/09 06:53:24;;;;;;;1.08;0.82;;;21.70;1.00;;;;;;4896822;29;20044;-45
2023/08/09 06:55:51;;;;;;;0.75;0.30;;;21.70;1.00;;;;;;4901475;29;20048;-45
2023/08/09 06:58:18;;;;;;;0.90;0.30;;;21.70;1.00;;;;;;4918272;29;20044;-44
2023/08/09 07:00:46;;;;;;;0.85;0.30;;;21.80;1.00;;;;;;4917088;29;20127;-50
2023/08/09 07:03:14;;;;;;;1.27;0.45;;;21.80;1.00;;;;;;4906248;29;20104;-44
2023/08/09 07:05:42;;;;;;;2.30;0.32;;;21.80;1.00;;;;;;4917651;29;20040;-44
2023/08/09 07:08:09;;;;;;;0.47;0.30;;;21.80;1.00;;;;;;4916250;29;20051;-44
2023/08/09 07:10:35;;;;;;;0.95;0.70;;;21.90;1.00;;;;;;4912532;29;20112;-44
2023/08/09 07:13:03;;;;;;;0.90;0.30;;;21.90;1.00;;;;;;4914810;29;20513;-44
2023/08/09 07:15:30;;;;;;;0.75;0.30;;;21.90;1.00;;;;;;4906072;29;20445;-53
2023/08/09 07:17:57;;;;;;;0.90;0.43;;;21.90;1.00;;;;;;4907796;29;20041;-46
2023/08/09 07:20:24;;;;;;;1.13;0.50;;;21.90;1.00;;;;;;4907358;29;20048;-44
2023/08/09 07:22:52;;;;;;;0.77;0.40;;;22.00;1.00;;;;;;4917249;29;20445;-47
2023/08/09 07:25:19;;;;;;;1.00;0.50;;;21.90;1.00;;;;;;4917316;29;20055;-46
2023/08/09 07:27:49;;;;;;;0.82;0.50;;;22.00;1.00;;;;;;4917125;29;20068;-44
2023/08/09 07:30:17;;;;;;;1.20;0.20;;;22.00;1.00;;;;;;4909882;29;20036;-44
2023/08/09 07:32:45;;;;;;;1.35;0.43;;;22.10;1.00;;;;;;4917146;29;20078;-46
2023/08/09 07:35:13;;;;;;;1.00;0.40;;;22.10;1.00;;;;;;4917102;29;20056;-44
2023/08/09 07:37:42;;;;;;;1.15;0.25;;;22.10;1.00;;;;;;4917031;29;20074;-44
2023/08/09 07:40:13;;;;;;;1.48;0.65;;;22.10;1.00;;;;;;4916958;29;20080;-44
2023/08/09 07:42:41;;;;;;;1.05;0.40;;;22.10;1.00;;;;;;4908207;29;20100;-48
2023/08/09 07:45:09;;;;;;;1.15;0.40;;;22.10;1.00;;;;;;4917147;29;20042;-44
2023/08/09 07:47:36;;;;;;;1.17;0.40;;;22.10;1.00;;;;;;4916973;29;20104;-44
2023/08/09 07:50:05;;;;;;;0.60;0.30;;;22.10;1.00;;;;;;4916611;29;20568;-46
2023/08/09 07:52:33;;;;;;;0.73;0.32;;;22.20;1.00;;;;;;4917099;29;20127;-45
2023/08/09 07:55:00;;;;;;;1.17;0.30;;;22.10;1.00;;;;;;4916574;29;20048;-43
2023/08/09 07:57:27;;;;;;;0.77;0.40;;;22.20;1.00;;;;;;4916864;29;20100;-45
2023/08/09 07:59:54;;;;;;;1.05;0.40;;;22.20;1.00;;;;;;4916554;29;20277;-44
2023/08/09 08:02:41;;;;;;;1.75;0.63;;;22.20;1.00;;;;;;4916612;29;20543;-46
2023/08/09 08:05:11;;;;;;;2.15;1.35;;;22.20;1.00;;;;;;4916672;29;20047;-45
2023/08/09 08:07:39;;;;;;;0.90;0.40;;;22.20;1.00;;;;;;4909025;29;20393;-44
2023/08/09 08:10:13;;;;;;;0.65;0.30;;;22.20;1.00;;;;;;4916199;29;20047;-48
2023/08/09 08:12:43;;;;;;;1.95;0.45;;;22.20;1.00;;;;;;4916579;29;20135;-48
2023/08/09 08:15:12;;;;;;;1.77;0.60;;;22.20;1.00;;;;;;4908914;29;20412;-44
2023/08/09 08:17:39;;;;;;;0.88;0.38;;;22.20;1.00;;;;;;4916306;29;20068;-46
2023/08/09 08:20:15;;;;;;;0.50;0.30;;;22.20;1.00;;;;;;4915983;29;20059;-46
2023/08/09 08:22:43;;;;;;;1.85;0.38;;;22.20;1.00;;;;;;4916473;29;20044;-44
2023/08/09 08:25:12;;;;;;;1.48;0.28;;;22.30;1.00;;;;;;4899213;29;20075;-48
2023/08/09 08:27:45;;;;;;;1.52;0.50;;;22.30;1.00;;;;;;4916356;29;20068;-46
2023/08/09 08:30:17;;;;;;;1.00;0.38;;;22.30;1.00;;;;;;4915992;29;20103;-44
2023/08/09 08:32:46;;;;;;;2.63;0.90;;;22.30;1.00;;;;;;4899183;29;20095;-43
2023/08/09 08:35:14;;;;;;;1.83;0.43;;;22.30;1.00;;;;;;4916140;29;20047;-49
2023/08/09 08:37:41;;;;;;;1.75;0.52;;;22.30;1.00;;;;;;4915949;29;20048;-44
2023/08/09 08:40:17;;;;;;;3.15;0.80;;;22.30;1.00;;;;;;4915805;29;20559;-45
2023/08/09 08:42:45;;;;;;;0.80;0.50;;;22.30;1.00;;;;;;4916010;29;20036;-44
2023/08/09 08:45:14;;;;;;;0.88;0.30;;;22.30;1.00;;;;;;4915764;29;20049;-44
2023/08/09 08:47:43;;;;;;;1.10;0.50;;;22.30;1.00;;;;;;4915970;29;20070;-44
2023/08/09 08:50:11;;;;;;;3.47;0.80;;;22.30;1.00;;;;;;4915674;29;20534;-49
2023/08/09 08:52:51;;;;;;;2.97;0.60;;;22.30;1.00;;;;;;4915209;29;20460;-47
2023/08/09 08:55:19;;;;;;;1.08;0.50;;;22.30;1.00;;;;;;4916109;29;20044;-44
2023/08/09 08:57:47;;;;;;;2.17;0.65;;;22.40;1.00;;;;;;4898745;29;20043;-46
2023/08/09 09:00:18;;;;;;;0.90;0.40;;;22.30;1.00;;;;;;4915605;29;20126;-49
2023/08/09 09:02:48;;;;;;;1.65;0.43;;;22.40;1.00;;;;;;4915352;29;20036;-57
2023/08/09 09:05:16;;;;;;;0.70;0.38;;;22.40;1.00;;;;;;4915464;29;20048;-46
2023/08/09 09:07:45;;;;;;;1.98;0.63;;;22.40;1.00;;;;;;4915661;29;20119;-46
2023/08/09 09:10:12;;;;;;;0.77;0.30;;;22.40;1.00;;;;;;4915523;29;20449;-45
2023/08/09 09:12:40;;;;;;;0.77;0.52;;;22.40;1.00;;;;;;4915646;29;20115;-45
2023/08/09 09:15:09;;;;;;;0.80;0.38;;;22.40;1.00;;;;;;4915422;29;20036;-44
2023/08/09 09:17:41;;;;;;;1.10;0.70;;;22.40;1.00;;;;;;4915731;29;20443;-47
2023/08/09 09:20:15;;;;;;;0.60;0.30;;;22.40;1.00;;;;;;4915279;29;20054;-45
2023/08/09 09:22:42;;;;;;;1.25;0.43;;;22.40;1.00;;;;;;4915596;29;20298;-44
2023/08/09 09:25:12;;;;;;;0.93;0.57;;;22.50;1.00;;;;;;4915498;29;20059;-45
2023/08/09 09:27:42;;;;;;;1.88;0.55;;;22.40;1.00;;;;;;4915471;29;20033;-43
2023/08/09 09:30:13;;;;;;;0.93;0.50;;;22.50;1.00;;;;;;4915119;29;20040;-44
2023/08/09 09:32:57;;;;;;;3.75;0.65;;;22.50;1.00;;;;;;4915470;29;20099;-48
2023/08/09 09:35:28;;;;;;;1.52;0.60;;;22.50;1.00;;;;;;4915413;29;20777;-56
2023/08/09 09:37:58;;;;;;;1.15;0.43;;;22.50;1.00;;;;;;4912415;29;20040;-46
2023/08/09 09:40:28;;;;;;;1.40;0.73;;;22.60;1.00;;;;;;4915334;29;20044;-47
2023/08/09 09:42:58;;;;;;;1.60;0.50;;;22.60;1.00;;;;;;4915257;29;20040;-48
2023/08/09 09:45:28;;;;;;;1.80;0.88;;;22.60;1.00;;;;;;4915139;29;20463;-43
2023/08/09 09:47:57;;;;;;;1.65;0.65;;;22.60;1.00;;;;;;4915207;29;20096;-43
2023/08/09 09:50:28;;;;;;;2.42;0.65;;;22.60;1.00;;;;;;4915274;29;20118;-44
2023/08/09 09:52:55;;;;;;;3.03;0.77;;;22.60;1.00;;;;;;4915250;29;20524;-49
2023/08/09 09:55:25;;;;;;;2.05;0.65;;;22.60;1.00;;;;;;4915182;29;20050;-46
2023/08/09 09:57:54;;;;;;;5.97;0.40;;;22.60;1.00;;;;;;4909037;29;20040;-44
2023/08/09 10:00:22;;;;;;;1.13;0.80;;;22.60;1.00;;;;;;4899475;29;20411;-45
2023/08/09 10:02:51;;;;;;;3.53;0.60;;;22.60;1.00;;;;;;4915091;29;20036;-47
2023/08/09 10:05:28;;;;;;;4.65;0.47;;;22.70;1.00;;;;;;4917387;29;20047;-44
2023/08/09 10:07:58;;;;;;;1.48;0.32;;;22.70;1.00;;;;;;4918713;29;20059;-57
2023/08/09 10:10:27;;;;;;;3.38;1.25;;;22.70;1.00;;;;;;4918582;29;20496;-51
2023/08/09 10:12:55;;;;;;;2.70;0.75;;;22.70;1.00;;;;;;4918904;29;20068;-49
2023/08/09 10:15:43;;;;;;;1.42;0.50;;;22.70;1.00;;;;;;4901776;29;20048;-49
2023/08/09 10:18:14;;;;;;;3.22;0.68;;;22.70;1.00;;;;;;4918497;29;20186;-51
2023/08/09 10:20:46;;;;;;;1.23;0.60;;;22.70;1.00;;;;;;4901383;29;20048;-49
2023/08/09 10:23:30;;;;;;;2.38;0.50;;;22.70;1.00;;;;;;4918427;29;20448;-44
2023/08/09 10:25:58;;;;;;;7.22;0.65;;;22.80;1.00;;;;;;4918470;29;20488;-47
2023/08/09 10:28:47;;;;;;;3.50;1.02;;;22.80;1.00;;;;;;4918328;29;20092;-46
2023/08/09 10:31:14;;;;;;;3.70;0.75;;;22.80;1.00;;;;;;4918159;29;20066;-44
2023/08/09 10:34:10;;;;;;;;;;;22.80;1.00;;;;;;4918662;29;20032;-51
2023/08/09 10:36:37;;;;;;;5.45;0.80;;;22.80;1.00;;;;;;4912998;29;19974;-44
2023/08/09 10:39:14;;;;;;;0.95;0.40;;;22.80;1.00;;;;;;4917821;29;20131;-45
2023/08/09 10:42:06;;;;;;;2.35;0.75;;;22.80;1.00;;;;;;4918039;29;20048;-44
2023/08/09 10:44:45;;;;;;;0.75;0.40;;;22.80;1.00;;;;;;4918154;29;20115;-44
2023/08/09 10:47:18;;;;;;;3.75;1.00;;;22.80;1.00;;;;;;4917890;29;20126;-43
2023/08/09 10:49:48;;;;;;;;;;;22.80;1.00;;;;;;4918240;29;20040;-46
2023/08/09 10:52:16;;;;;;;2.47;0.60;;;22.80;1.00;;;;;;4917951;29;19955;-44
2023/08/09 10:54:49;;;;;;;1.35;0.50;;;22.80;1.00;;;;;;4917818;29;20044;-44
2023/08/09 10:57:16;;;;;;;2.70;0.70;;;22.80;1.00;;;;;;4915872;29;20087;-51
2023/08/09 10:59:54;;;;;;;2.95;0.60;;;22.80;1.00;;;;;;4912189;29;20048;-43
2023/08/09 11:02:21;;;;;;;2.67;0.60;;;22.90;1.00;;;;;;4917743;29;20453;-45
2023/08/09 11:04:49;;;;;;;3.33;0.43;;;22.90;1.00;;;;;;4917726;29;20047;-45
2023/08/09 11:07:20;;;;;;;1.20;0.68;;;22.90;1.00;;;;;;4917526;29;20074;-44
2023/08/09 11:09:46;;;;;;;4.60;1.00;;;22.90;1.00;;;;;;4917472;29;20036;-47
2023/08/09 11:12:14;;;;;;;2.20;0.75;;;22.90;1.00;;;;;;4917627;29;20048;-50
2023/08/09 11:14:41;;;;;;;2.58;1.10;;;22.90;1.00;;;;;;4917574;29;20044;-48
2023/08/09 11:17:13;;;;;;;1.67;0.80;;;22.90;1.00;;;;;;4916559;29;20122;-44
2023/08/09 11:19:39;;;;;;;1.80;1.15;;;22.90;1.00;;;;;;4917325;29;20043;-44
2023/08/09 11:22:07;;;;;;;5.93;1.13;;;22.90;1.00;;;;;;4917345;29;20078;-45
2023/08/09 11:24:34;;;;;;;1.52;0.50;;;22.90;1.00;;;;;;4917518;29;20111;-45
2023/08/09 11:27:01;;;;;;;2.10;0.82;;;22.90;1.00;;;;;;4917403;29;20092;-45
2023/08/09 11:29:28;;;;;;;4.03;0.80;;;22.90;1.00;;;;;;4917054;29;20040;-46
2023/08/09 11:31:58;;;;;;;3.35;0.70;;;23.00;1.00;;;;;;4917333;29;20107;-46
2023/08/09 11:34:25;;;;;;;6.20;1.23;;;23.00;1.00;;;;;;4917305;29;20044;-44
2023/08/09 11:36:55;;;;;;;3.25;0.95;;;23.00;1.00;;;;;;4917254;29;20047;-44
2023/08/09 11:39:24;;;;;;;3.35;1.10;;;22.90;1.00;;;;;;4916777;29;20563;-44
2023/08/09 11:41:53;;;;;;;3.05;0.70;;;22.90;1.00;;;;;;4917095;29;20084;-48
2023/08/09 11:44:31;;;;;;;4.57;0.90;;;22.90;1.00;;;;;;4916966;29;20047;-44
2023/08/09 11:47:00;;;;;;;2.63;0.80;;;23.00;1.00;;;;;;4917069;29;20040;-44
2023/08/09 11:49:29;;;;;;;1.65;0.70;;;22.90;1.00;;;;;;4916521;29;20064;-50
2023/08/09 11:51:56;;;;;;;3.70;0.93;;;22.90;1.00;;;;;;4916942;29;20099;-43
2023/08/09 11:54:25;;;;;;;3.70;0.65;;;23.00;1.00;;;;;;4916657;29;20044;-48
2023/08/09 11:56:52;;;;;;;4.10;0.80;;;23.00;1.00;;;;;;4916786;29;20456;-44
2023/08/09 11:59:22;;;;;;;2.47;0.80;;;22.90;1.00;;;;;;4916437;29;20103;-49
2023/08/09 12:01:51;;;;;;;5.38;0.80;;;23.00;1.00;;;;;;4916964;29;20039;-43
2023/08/09 12:04:24;;;;;;;3.38;0.93;;;22.90;1.00;;;;;;4916557;29;20044;-43
2023/08/09 12:06:55;;;;;;;3.67;0.57;;;23.00;1.00;;;;;;4917152;29;20481;-46
2023/08/09 12:09:30;;;;;;;2.17;0.57;;;22.90;1.00;;;;;;4916356;29;20044;-46
2023/08/09 12:12:07;;;;;;;3.08;0.68;;;22.90;1.00;;;;;;4909673;29;20047;-46
2023/08/09 12:14:39;;;;;;;3.17;0.82;;;23.00;1.00;;;;;;4908757;29;20500;-44
2023/08/09 12:17:07;;;;;;;3.40;0.93;;;22.90;1.00;;;;;;4909054;29;20385;-44
2023/08/09 12:19:35;;;;;;;5.68;1.35;;;22.90;1.00;;;;;;4908464;29;20374;-48
2023/08/09 12:22:03;;;;;;;1.45;0.70;;;23.00;1.00;;;;;;4916408;29;20044;-47
2023/08/09 12:24:31;;;;;;;1.85;0.68;;;22.90;1.00;;;;;;4916345;29;20095;-44
2023/08/09 12:26:58;;;;;;;2.42;0.70;;;23.00;1.00;;;;;;4915977;29;20048;-45
2023/08/09 12:29:25;;;;;;;1.90;0.70;;;23.00;1.00;;;;;;4899089;29;20054;-44
2023/08/09 12:31:52;;;;;;;2.00;0.47;;;23.00;1.00;;;;;;4916279;29;20119;-48
2023/08/09 12:34:19;;;;;;;2.08;0.65;;;22.90;1.00;;;;;;4916149;29;20044;-48
2023/08/09 12:36:46;;;;;;;5.40;1.27;;;22.90;1.00;;;;;;4915926;29;20040;-47
2023/08/09 12:39:14;;;;;;;4.05;1.13;;;22.90;1.00;;;;;;4915774;29;20457;-46
2023/08/09 12:41:41;;;;;;;3.80;1.00;;;22.90;1.00;;;;;;4915696;29;20427;-44
2023/08/09 12:44:08;;;;;;;1.45;0.70;;;22.90;1.00;;;;;;4915946;29;20040;-44
2023/08/09 12:46:42;;;;;;;5.13;1.15;;;22.90;1.00;;;;;;4915863;29;20449;-47
2023/08/09 12:49:10;;;;;;;1.98;0.80;;;22.90;1.00;;;;;;4916163;29;20072;-44
2023/08/09 12:51:38;;;;;;;1.77;0.40;;;22.90;1.00;;;;;;4915888;29;20084;-44
2023/08/09 12:54:06;;;;;;;2.38;0.88;;;22.90;1.00;;;;;;4915979;29;20048;-44
2023/08/09 12:56:32;;;;;;;4.10;0.77;;;22.90;1.00;;;;;;4915538;29;20135;-45
2023/08/09 12:59:00;;;;;;;4.45;0.82;;;22.90;1.00;;;;;;4915821;29;20099;-44
2023/08/09 13:01:27;;;;;;;3.40;1.13;;;22.90;1.00;;;;;;4915569;29;20672;-46
2023/08/09 13:03:54;;;;;;;2.10;1.00;;;22.90;1.00;;;;;;4915603;29;20120;-46
2023/08/09 13:06:21;;;;;;;2.90;0.75;;;22.90;1.00;;;;;;4915544;29;20068;-47